createdAt,value
2022-10-31T00:03:28.729Z,22.60
2022-10-31T00:07:32.088Z,28.40
2022-10-31T00:11:35.369Z,26.30
2022-10-31T00:15:40.926Z,20.90
2022-10-31T00:19:44.144Z,23.40
2022-10-31T00:23:47.378Z,22.00
2022-10-31T00:27:50.790Z,17.50
2022-10-31T00:31:54.536Z,22.80
2022-10-31T00:35:57.852Z,15.10
2022-10-31T00:40:01.074Z,19.80
2022-10-31T00:44:04.402Z,12.40
2022-10-31T00:48:07.671Z,16.20
2022-10-31T00:52:10.889Z,20.00
2022-10-31T00:56:14.266Z,18.80
2022-10-31T01:00:17.945Z,18.10
2022-10-31T01:04:21.380Z,16.10
2022-10-31T01:08:26.491Z,17.90
2022-10-31T01:12:29.950Z,14.00
2022-10-31T01:16:33.876Z,11.00
2022-10-31T01:20:37.102Z,14.60
2022-10-31T01:24:40.294Z,12.50
2022-10-31T01:28:54.819Z,16.10
2022-10-31T01:32:58.551Z,13.40
2022-10-31T01:37:02.180Z,12.40
2022-10-31T01:41:05.824Z,12.20
2022-10-31T01:45:11.544Z,13.80
2022-10-31T01:49:25.377Z,16.50
2022-10-31T01:53:28.670Z,12.30
2022-10-31T01:57:34.511Z,17.80
2022-10-31T02:01:39.725Z,16.00
2022-10-31T02:05:44.256Z,11.90
2022-10-31T02:09:49.005Z,12.50
2022-10-31T02:13:53.632Z,12.40
2022-10-31T02:18:00.204Z,12.20
2022-10-31T02:22:07.598Z,8.70
2022-10-31T02:26:10.824Z,19.40
2022-10-31T02:30:25.907Z,21.40
2022-10-31T02:34:42.799Z,9.70
2022-10-31T02:39:20.008Z,10.10
2022-10-31T02:43:31.253Z,10.70
2022-10-31T02:47:38.959Z,16.80
2022-10-31T02:51:42.343Z,14.10
2022-10-31T02:56:01.648Z,9.00
2022-10-31T03:00:08.691Z,10.10
2022-10-31T03:04:39.329Z,14.30
2022-10-31T03:08:56.273Z,8.20
2022-10-31T03:13:04.936Z,11.80
2022-10-31T03:21:17.842Z,13.20
2022-10-31T03:25:21.191Z,19.00
2022-10-31T03:29:30.535Z,10.70
2022-10-31T03:37:41.941Z,11.70
2022-10-31T03:45:54.823Z,10.50
2022-10-31T03:49:58.840Z,19.10
2022-10-31T03:54:35.571Z,15.90
2022-10-31T03:58:48.717Z,21.20
2022-10-31T04:03:01.767Z,9.50
2022-10-31T04:07:08.592Z,16.10
2022-10-31T04:11:15.300Z,12.70
2022-10-31T04:15:20.702Z,15.30
2022-10-31T04:19:24.021Z,11.50
2022-10-31T04:23:29.393Z,16.80
2022-10-31T04:27:32.733Z,10.50
2022-10-31T04:31:36.009Z,13.00
2022-10-31T04:35:39.199Z,14.80
2022-10-31T04:39:42.436Z,13.30
2022-10-31T04:44:04.569Z,14.00
2022-10-31T04:48:07.902Z,12.20
2022-10-31T04:52:11.558Z,16.40
2022-10-31T04:56:14.808Z,15.70
2022-10-31T05:00:23.066Z,10.90
2022-10-31T05:04:26.366Z,14.90
2022-10-31T05:08:29.640Z,16.20
2022-10-31T05:12:33.856Z,12.40
2022-10-31T05:16:43.104Z,11.00
2022-10-31T05:21:05.035Z,13.20
2022-10-31T05:25:12.698Z,12.80
2022-10-31T05:29:16.028Z,20.10
2022-10-31T05:33:19.462Z,19.40
2022-10-31T05:37:41.625Z,13.80
2022-10-31T05:41:44.890Z,16.30
2022-10-31T05:45:57.011Z,11.70
2022-10-31T05:50:33.118Z,16.40
2022-10-31T05:54:45.802Z,14.10
2022-10-31T05:58:49.039Z,12.90
2022-10-31T06:03:02.993Z,12.90
2022-10-31T06:07:18.335Z,12.40
2022-10-31T06:11:21.731Z,16.50
2022-10-31T06:16:00.346Z,9.60
2022-10-31T06:20:10.193Z,16.20
2022-10-31T06:28:30.231Z,15.60
2022-10-31T06:32:47.341Z,11.40
2022-10-31T06:36:51.306Z,15.60
2022-10-31T06:40:57.086Z,18.20
2022-10-31T06:45:03.871Z,17.30
2022-10-31T06:49:39.145Z,15.90
2022-10-31T06:53:47.801Z,12.30
2022-10-31T06:58:01.932Z,16.50
2022-10-31T07:02:06.948Z,16.40
2022-10-31T07:06:10.444Z,15.10
2022-10-31T07:10:15.452Z,14.30
2022-10-31T07:14:29.917Z,14.80
2022-10-31T07:18:34.051Z,19.60
2022-10-31T07:22:38.608Z,19.60
2022-10-31T07:30:55.014Z,23.80
2022-10-31T07:34:58.728Z,36.60
2022-10-31T07:39:10.496Z,18.50
2022-10-31T07:43:14.910Z,20.60
2022-10-31T07:47:47.643Z,17.10
2022-10-31T07:52:14.962Z,19.20
2022-10-31T07:56:36.663Z,18.40
2022-10-31T08:00:42.179Z,22.20
2022-10-31T08:04:45.710Z,23.90
2022-10-31T08:09:04.502Z,19.50
2022-10-31T08:13:11.001Z,36.20
2022-10-31T08:17:16.428Z,19.70
2022-10-31T08:21:27.700Z,18.20
2022-10-31T08:25:38.236Z,24.00
2022-10-31T08:29:43.046Z,20.20
2022-10-31T08:33:50.252Z,23.70
2022-10-31T08:38:13.932Z,18.30
2022-10-31T08:42:17.345Z,20.00
2022-10-31T08:46:20.706Z,24.40
2022-10-31T08:50:25.024Z,19.00
2022-10-31T08:54:28.448Z,19.40
2022-10-31T08:58:34.211Z,16.80
2022-10-31T09:02:41.353Z,17.50
2022-10-31T09:07:15.224Z,16.30
2022-10-31T09:11:23.535Z,18.70
2022-10-31T09:16:08.688Z,21.30
2022-10-31T09:20:13.644Z,18.50
2022-10-31T09:24:16.922Z,18.40
2022-10-31T09:28:22.853Z,16.20
2022-10-31T09:32:27.341Z,18.30
2022-10-31T09:36:30.959Z,17.90
2022-10-31T09:40:36.790Z,17.70
2022-10-31T09:44:43.062Z,18.60
2022-10-31T09:49:25.108Z,22.40
2022-10-31T09:53:44.577Z,23.00
2022-10-31T10:02:04.916Z,22.00
2022-10-31T10:06:16.664Z,19.20
2022-10-31T10:10:49.388Z,19.50
2022-10-31T10:15:31.437Z,20.60
2022-10-31T10:19:49.471Z,16.90
2022-10-31T10:24:23.684Z,17.50
2022-10-31T10:28:46.716Z,21.70
2022-10-31T10:32:58.121Z,16.90
2022-10-31T10:37:35.467Z,15.20
2022-10-31T10:41:45.466Z,15.50
2022-10-31T10:46:19.486Z,18.80
2022-10-31T10:50:29.082Z,14.40
2022-10-31T10:54:38.630Z,11.40
2022-10-31T10:58:43.898Z,11.70
2022-10-31T11:02:49.038Z,15.00
2022-10-31T11:07:06.550Z,17.40
2022-10-31T11:11:17.799Z,14.30
2022-10-31T11:15:27.299Z,13.70
2022-10-31T11:19:30.632Z,13.10
2022-10-31T11:23:34.244Z,16.90
2022-10-31T11:27:37.736Z,13.80
2022-10-31T11:31:50.580Z,14.10
2022-10-31T11:35:58.005Z,9.60
2022-10-31T11:40:06.821Z,12.10
2022-10-31T11:48:31.437Z,12.40
2022-10-31T11:52:34.849Z,15.30
2022-10-31T11:56:43.593Z,11.20
2022-10-31T12:00:52.201Z,12.10
2022-10-31T12:04:59.952Z,13.60
2022-10-31T12:09:10.820Z,13.80
2022-10-31T12:13:33.837Z,11.50
2022-10-31T12:17:43.123Z,8.10
2022-10-31T12:21:49.143Z,13.80
2022-10-31T12:26:09.949Z,14.80
2022-10-31T12:30:28.645Z,21.70
2022-10-31T12:38:58.692Z,20.10
2022-10-31T12:43:20.298Z,22.50
2022-10-31T12:47:32.658Z,23.50
2022-10-31T12:51:49.735Z,19.10
2022-10-31T12:56:25.716Z,23.00
2022-10-31T13:00:32.873Z,20.10
2022-10-31T13:04:42.227Z,19.10
2022-10-31T13:08:57.042Z,18.70
2022-10-31T13:13:10.628Z,21.40
2022-10-31T13:17:48.323Z,19.80
2022-10-31T13:22:17.029Z,18.90
2022-10-31T13:30:44.416Z,18.80
2022-10-31T13:34:55.226Z,21.40
2022-10-31T13:39:17.460Z,15.80
2022-10-31T13:43:44.150Z,21.70
2022-10-31T13:48:20.589Z,14.40
2022-10-31T13:52:26.220Z,18.80
2022-10-31T13:56:33.612Z,17.60
2022-10-31T14:00:40.421Z,16.60
2022-10-31T14:08:58.354Z,16.60
2022-10-31T14:13:26.830Z,15.70
2022-10-31T14:17:36.517Z,21.30
2022-10-31T14:21:45.129Z,16.00
2022-10-31T14:25:48.402Z,21.60
2022-10-31T14:29:51.867Z,19.60
2022-10-31T14:33:55.834Z,16.60
2022-10-31T14:38:30.941Z,21.10
2022-10-31T14:43:14.336Z,24.00
2022-10-31T14:47:38.290Z,23.60
2022-10-31T14:51:47.632Z,29.50
2022-10-31T14:55:54.328Z,26.50
2022-10-31T15:00:06.525Z,32.70
2022-10-31T15:04:33.780Z,36.10
2022-10-31T15:09:01.628Z,33.00
2022-10-31T15:13:25.443Z,39.00
2022-10-31T15:17:28.858Z,40.40
2022-10-31T15:21:32.855Z,41.10
2022-10-31T15:25:36.597Z,42.00
2022-10-31T15:29:57.575Z,54.30
2022-10-31T15:34:08.782Z,63.40
2022-10-31T15:38:12.144Z,64.40
2022-10-31T15:42:30.444Z,59.20
2022-10-31T15:46:35.082Z,59.80
2022-10-31T15:50:47.149Z,62.60
2022-10-31T15:54:57.056Z,54.70
2022-10-31T15:59:02.502Z,59.60
2022-10-31T16:03:15.035Z,51.40
2022-10-31T16:07:23.465Z,49.30
2022-10-31T16:11:39.725Z,48.70
2022-10-31T16:16:21.337Z,55.60
2022-10-31T16:20:23.988Z,50.30
2022-10-31T16:24:33.525Z,51.40
2022-10-31T16:28:39.703Z,51.10
2022-10-31T16:32:56.820Z,59.20
2022-10-31T16:37:02.847Z,66.60
2022-10-31T16:41:06.039Z,50.70
2022-10-31T16:45:16.018Z,51.00
2022-10-31T16:49:19.962Z,45.90
2022-10-31T16:53:23.245Z,47.20
2022-10-31T16:57:30.914Z,43.70
2022-10-31T17:01:36.442Z,35.40
2022-10-31T17:05:39.915Z,34.80
2022-10-31T17:09:43.228Z,36.50
2022-10-31T17:13:46.601Z,39.60
2022-10-31T17:17:49.969Z,41.40
2022-10-31T17:21:53.243Z,42.50
2022-10-31T17:25:57.443Z,40.80
2022-10-31T17:30:00.612Z,48.50
2022-10-31T17:34:05.437Z,45.60
2022-10-31T17:38:09.297Z,41.50
2022-10-31T17:42:12.538Z,46.10
2022-10-31T17:46:15.849Z,42.20
2022-10-31T17:50:21.595Z,45.60
2022-10-31T17:54:25.267Z,43.60
2022-10-31T17:58:28.935Z,47.60
2022-10-31T18:02:32.460Z,54.40
2022-10-31T18:06:35.994Z,47.60
2022-10-31T18:10:39.456Z,55.10
2022-10-31T18:14:48.170Z,51.00
2022-10-31T18:19:02.225Z,54.10
2022-10-31T18:23:05.450Z,62.80
2022-10-31T18:27:08.775Z,67.40
2022-10-31T18:31:11.997Z,76.70
2022-10-31T18:35:15.244Z,79.90
2022-10-31T18:39:19.380Z,76.40
2022-10-31T18:43:22.630Z,69.00
2022-10-31T18:47:25.902Z,97.40
2022-10-31T18:51:29.784Z,74.00
2022-10-31T18:55:33.114Z,74.90
2022-10-31T18:59:36.451Z,87.50
2022-10-31T19:03:40.486Z,89.60
2022-10-31T19:07:43.845Z,110.10
2022-10-31T19:11:47.288Z,115.50
2022-10-31T19:15:50.507Z,98.40
2022-10-31T19:19:53.930Z,94.70
2022-10-31T19:23:58.338Z,80.00
2022-10-31T19:28:02.032Z,83.60
2022-10-31T19:32:05.899Z,74.40
2022-10-31T19:36:12.138Z,67.10
2022-10-31T19:40:16.033Z,78.70
2022-10-31T19:44:19.348Z,72.10
2022-10-31T19:48:22.827Z,61.30
2022-10-31T19:52:26.471Z,65.80
2022-10-31T19:56:29.783Z,58.20
2022-10-31T20:00:33.020Z,65.10
2022-10-31T20:04:36.411Z,48.80
2022-10-31T20:08:39.795Z,70.60
2022-10-31T20:12:43.482Z,55.80
2022-10-31T20:16:46.865Z,62.00
2022-10-31T20:20:50.310Z,83.20
2022-10-31T20:24:53.502Z,51.00
2022-10-31T20:28:57.902Z,76.60
2022-10-31T20:33:01.227Z,59.10
2022-10-31T20:37:04.590Z,67.50
2022-10-31T20:41:10.764Z,62.60
2022-10-31T20:45:14.103Z,70.60
2022-10-31T20:49:18.054Z,67.20
2022-10-31T20:53:21.607Z,74.00
2022-10-31T20:57:24.875Z,60.90
2022-10-31T21:01:33.787Z,63.80
2022-10-31T21:05:37.103Z,56.50
2022-10-31T21:09:40.417Z,63.10
2022-10-31T21:13:46.073Z,67.80
2022-10-31T21:17:49.755Z,57.90
2022-10-31T21:21:53.049Z,64.00
2022-10-31T21:25:56.308Z,60.10
2022-10-31T21:29:59.737Z,49.60
2022-10-31T21:34:03.679Z,51.10
2022-10-31T21:38:07.050Z,48.20
2022-10-31T21:42:10.340Z,76.80
2022-10-31T21:46:17.124Z,64.00
2022-10-31T21:50:20.490Z,69.50
2022-10-31T21:54:30.479Z,64.00
2022-10-31T21:58:36.268Z,65.30
2022-10-31T22:02:42.593Z,88.10
2022-10-31T22:06:45.883Z,43.70
2022-10-31T22:10:49.111Z,47.80
2022-10-31T22:14:52.457Z,70.60
2022-10-31T22:18:58.696Z,68.50
2022-10-31T22:23:02.115Z,96.40
2022-10-31T22:27:05.396Z,56.80
2022-10-31T22:35:13.767Z,72.80
2022-10-31T22:39:16.990Z,91.90
2022-10-31T22:43:20.167Z,108.10
2022-10-31T22:47:23.324Z,59.10
2022-10-31T22:51:29.858Z,47.00
2022-10-31T22:55:35.246Z,51.70
2022-10-31T22:59:38.534Z,57.90
2022-10-31T23:03:42.627Z,45.00
2022-10-31T23:07:45.833Z,49.80
2022-10-31T23:11:49.018Z,25.40
2022-10-31T23:15:52.310Z,57.60
2022-10-31T23:19:55.596Z,63.30
2022-10-31T23:23:59.477Z,53.40
2022-10-31T23:28:02.751Z,50.60
2022-10-31T23:32:09.699Z,61.80
2022-10-31T23:36:12.931Z,43.40
2022-10-31T23:40:16.236Z,60.30
2022-10-31T23:44:19.464Z,31.70
2022-10-31T23:48:22.713Z,48.00
2022-10-31T23:52:25.959Z,57.20
2022-10-31T23:56:29.190Z,39.10
